Time;durP1;ratioP1;P1;durP2;ratioP2;P2;SDS_P1;SDS_P2;PMS_P1;PMS_P2;Temp;Humidity;BMP_temperature;BMP_pressure;BME280_temperature;BME280_humidity;BME280_pressure;Samples;Min_cycle;Max_cycle;Signal;HPM_P1;HPM_P2
2022/10/24 00:00:25;;;;;;;;;;;16.10;97.40;;;;;;5044432;28;20385;-77
2022/10/24 00:02:52;;;;;;;;;;;16.10;97.40;;;;;;5048519;28;20412;-78
2022/10/24 00:05:18;;;;;;;;;;;16.10;97.40;;;;;;5049452;28;19936;-78
2022/10/24 00:07:45;;;;;;;;;;;16.10;97.40;;;;;;5050452;28;20589;-78
2022/10/24 00:10:13;;;;;;;;;;;16.10;97.40;;;;;;5047364;28;19941;-77
2022/10/24 00:12:40;;;;;;;;;;;16.10;97.50;;;;;;5047286;28;19932;-78
2022/10/24 00:15:07;;;;;;;;;;;16.10;97.50;;;;;;5046555;28;19929;-77
2022/10/24 00:17:34;;;;;;;;;;;16.10;97.50;;;;;;5048316;28;19937;-78
2022/10/24 00:20:00;;;;;;;;;;;16.10;97.50;;;;;;5047432;28;19929;-77
2022/10/24 00:22:27;;;;;;;;;;;16.00;97.50;;;;;;5048347;28;20442;-77
2022/10/24 00:24:54;;;;;;;;;;;16.00;97.50;;;;;;5047122;28;19933;-77
2022/10/24 00:27:22;;;;;;;;;;;16.00;97.50;;;;;;5049346;28;19937;-77
2022/10/24 00:29:48;;;;;;;;;;;16.00;97.50;;;;;;5047850;28;20500;-77
2022/10/24 00:32:15;;;;;;;;;;;16.00;97.50;;;;;;5050021;28;20745;-77
2022/10/24 00:34:41;;;;;;;;;;;16.00;97.50;;;;;;5049202;28;20308;-77
2022/10/24 00:37:08;;;;;;;;;;;16.00;97.50;;;;;;5048767;28;19925;-77
2022/10/24 00:39:35;;;;;;;;;;;15.90;97.40;;;;;;5047923;28;19929;-77
2022/10/24 00:42:02;;;;;;;;;;;15.90;97.40;;;;;;5048006;28;19932;-77
2022/10/24 00:44:31;;;;;;;;;;;15.90;97.50;;;;;;5049102;28;19925;-78
2022/10/24 00:46:59;;;;;;;;;;;15.90;97.50;;;;;;5042724;28;19925;-77
2022/10/24 00:49:28;;;;;;;;;;;15.90;97.50;;;;;;5047189;28;19944;-77
2022/10/24 00:51:58;;;;;;;;;;;15.90;97.50;;;;;;5045968;28;19925;-77
2022/10/24 00:54:25;;;;;;;;;;;15.90;97.50;;;;;;5048580;28;19928;-77
2022/10/24 00:56:58;;;;;;;;;;;15.90;97.50;;;;;;5044993;28;19935;-77
2022/10/24 00:59:25;;;;;;;;;;;15.80;97.40;;;;;;5046945;28;20320;-77
2022/10/24 01:01:54;;;;;;;;;;;15.80;97.40;;;;;;5048474;28;20393;-78
2022/10/24 01:04:20;;;;;;;;;;;15.90;97.50;;;;;;5045155;28;19929;-77
2022/10/24 01:06:51;;;;;;;;;;;15.80;97.40;;;;;;5046667;28;20311;-78
2022/10/24 01:09:35;;;;;;;;;;;15.80;97.40;;;;;;5048005;28;19932;-77
2022/10/24 01:12:07;;;;;;;;;;;15.70;97.40;;;;;;5031952;28;19932;-77
2022/10/24 01:14:39;;;;;;;;;;;15.70;97.40;;;;;;5045105;28;19933;-77
2022/10/24 01:17:08;;;;;;;;;;;15.70;97.40;;;;;;5043837;28;19948;-77
2022/10/24 01:19:59;;;;;;;;;;;15.70;97.40;;;;;;5044402;28;19929;-77
2022/10/24 01:22:29;;;;;;;;;;;15.80;97.40;;;;;;5027795;28;19967;-77
2022/10/24 01:25:03;;;;;;;;;;;15.70;97.40;;;;;;5045237;28;19948;-78
2022/10/24 01:27:33;;;;;;;;;;;15.70;97.40;;;;;;5043754;28;19979;-78
2022/10/24 01:30:04;;;;;;;;;;;15.60;97.40;;;;;;5044688;28;19929;-78
2022/10/24 01:32:37;;;;;;;;;;;15.60;97.30;;;;;;5043561;28;19933;-78
2022/10/24 01:35:07;;;;;;;;;;;15.60;97.30;;;;;;5043844;28;19928;-78
2022/10/24 01:37:36;;;;;;;;;;;15.60;97.30;;;;;;5042929;28;19940;-77
2022/10/24 01:40:06;;;;;;;;;;;15.60;97.40;;;;;;5040060;28;20401;-78
2022/10/24 01:42:34;;;;;;;;;;;15.60;97.40;;;;;;5046349;28;19936;-77
2022/10/24 01:45:04;;;;;;;;;;;15.60;97.40;;;;;;5046289;28;19928;-78
2022/10/24 01:47:33;;;;;;;;;;;15.50;97.40;;;;;;5041775;28;19928;-77
2022/10/24 01:50:01;;;;;;;;;;;15.50;97.30;;;;;;5044855;28;19930;-77
2022/10/24 01:52:29;;;;;;;;;;;15.50;97.40;;;;;;5043311;28;19924;-78
2022/10/24 01:54:56;;;;;;;;;;;15.50;97.40;;;;;;5043636;28;19975;-78
2022/10/24 01:57:26;;;;;;;;;;;15.50;97.40;;;;;;5046334;28;19940;-78
2022/10/24 01:59:52;;;;;;;;;;;15.50;97.40;;;;;;5045006;28;19924;-78
2022/10/24 02:02:21;;;;;;;;;;;15.50;97.40;;;;;;5043379;28;20308;-78
2022/10/24 02:04:50;;;;;;;;;;;15.40;97.40;;;;;;5036739;28;20409;-77
2022/10/24 02:07:18;;;;;;;;;;;15.40;97.40;;;;;;5039503;28;20472;-77
2022/10/24 02:09:47;;;;;;;;;;;15.40;97.40;;;;;;5044683;28;19933;-77
2022/10/24 02:12:14;;;;;;;;;;;15.40;97.40;;;;;;5044328;28;19931;-77
2022/10/24 02:14:43;;;;;;;;;;;15.40;97.80;;;;;;5046297;28;19932;-77
2022/10/24 02:17:10;;;;;;;;;;;15.40;97.50;;;;;;5048439;28;19924;-77
2022/10/24 02:19:38;;;;;;;;;;;15.30;97.40;;;;;;5038632;28;20026;-76
2022/10/24 02:22:11;;;;;;;;;;;15.40;97.50;;;;;;5038844;28;20405;-77
2022/10/24 02:24:41;;;;;;;;;;;15.30;97.50;;;;;;5048665;28;20369;-77
2022/10/24 02:27:09;;;;;;;;;;;15.30;97.50;;;;;;5043761;28;19937;-77
2022/10/24 02:29:39;;;;;;;;;;;15.30;97.50;;;;;;5050548;28;19928;-77
2022/10/24 02:32:07;;;;;;;;;;;15.30;97.50;;;;;;5041498;28;20416;-78
2022/10/24 02:34:34;;;;;;;;;;;15.30;97.50;;;;;;5049260;28;19939;-78
2022/10/24 02:37:03;;;;;;;;;;;15.20;97.50;;;;;;5049448;28;19932;-77
2022/10/24 02:39:30;;;;;;;;;;;15.30;97.50;;;;;;5039701;28;19948;-77
2022/10/24 02:41:57;;;;;;;;;;;15.20;97.50;;;;;;5044789;28;20197;-78
2022/10/24 02:44:24;;;;;;;;;;;15.20;97.50;;;;;;5045998;28;20419;-77
2022/10/24 02:46:52;;;;;;;;;;;15.20;97.50;;;;;;5044957;28;19929;-77
2022/10/24 02:49:19;;;;;;;;;;;15.20;97.50;;;;;;5044216;28;19944;-77
2022/10/24 02:51:46;;;;;;;;;;;15.20;97.50;;;;;;5039192;28;19929;-77
2022/10/24 02:54:14;;;;;;;;;;;15.20;97.50;;;;;;5041016;28;19935;-78
2022/10/24 02:56:43;;;;;;;;;;;15.20;97.50;;;;;;5042995;28;19929;-77
2022/10/24 02:59:10;;;;;;;;;;;15.10;97.50;;;;;;5040603;28;20301;-76
2022/10/24 03:01:36;;;;;;;;;;;15.10;97.50;;;;;;5044509;28;20473;-77
2022/10/24 03:04:03;;;;;;;;;;;15.20;97.50;;;;;;5041067;28;19937;-78
2022/10/24 03:06:29;;;;;;;;;;;15.20;97.60;;;;;;5041318;28;19964;-77
2022/10/24 03:08:56;;;;;;;;;;;15.10;97.60;;;;;;5039308;28;19932;-77
2022/10/24 03:11:24;;;;;;;;;;;15.10;97.60;;;;;;5043079;28;19936;-78
2022/10/24 03:13:50;;;;;;;;;;;15.10;97.60;;;;;;5036771;28;19936;-76
2022/10/24 03:16:17;;;;;;;;;;;15.10;97.60;;;;;;5037697;28;20015;-76
2022/10/24 03:18:44;;;;;;;;;;;15.10;97.60;;;;;;5039593;28;19925;-77
2022/10/24 03:21:10;;;;;;;;;;;15.10;97.60;;;;;;5039551;28;19936;-76
2022/10/24 03:23:37;;;;;;;;;;;15.10;97.60;;;;;;5039293;28;19935;-76
2022/10/24 03:26:03;;;;;;;;;;;15.00;97.60;;;;;;5042894;28;20078;-77
2022/10/24 03:28:31;;;;;;;;;;;15.10;97.60;;;;;;5041986;28;19936;-77
2022/10/24 03:30:58;;;;;;;;;;;15.10;97.60;;;;;;5039093;28;19940;-76
2022/10/24 03:33:24;;;;;;;;;;;15.00;97.60;;;;;;5043057;28;19928;-77
2022/10/24 03:35:52;;;;;;;;;;;15.00;97.60;;;;;;5044895;28;19929;-76
2022/10/24 03:38:18;;;;;;;;;;;15.00;97.60;;;;;;5032568;28;19929;-77
2022/10/24 03:40:45;;;;;;;;;;;15.00;97.60;;;;;;5043728;28;20415;-76
2022/10/24 03:43:11;;;;;;;;;;;15.00;97.60;;;;;;5036801;28;19936;-76
2022/10/24 03:45:39;;;;;;;;;;;15.00;97.60;;;;;;5038515;28;19928;-76
2022/10/24 03:48:06;;;;;;;;;;;15.00;97.60;;;;;;5035477;28;19928;-77
2022/10/24 03:50:33;;;;;;;;;;;15.00;97.60;;;;;;5039698;28;19928;-76
2022/10/24 03:53:00;;;;;;;;;;;15.00;97.70;;;;;;5043685;28;19929;-77
2022/10/24 03:55:27;;;;;;;;;;;15.00;97.60;;;;;;5039998;28;19925;-77
2022/10/24 03:57:54;;;;;;;;;;;15.00;97.70;;;;;;5040048;28;19951;-77
2022/10/24 04:00:20;;;;;;;;;;;15.00;97.70;;;;;;5041148;28;19929;-76
2022/10/24 04:02:49;;;;;;;;;;;15.00;97.70;;;;;;5042643;28;19964;-76
2022/10/24 04:05:16;;;;;;;;;;;15.00;97.70;;;;;;5041310;28;19932;-76
2022/10/24 04:07:43;;;;;;;;;;;15.00;97.70;;;;;;5043204;28;19929;-77
2022/10/24 04:10:09;;;;;;;;;;;15.00;97.70;;;;;;5040942;28;19936;-76
2022/10/24 04:12:36;;;;;;;;;;;15.00;98.10;;;;;;5040889;28;19951;-76
2022/10/24 04:15:03;;;;;;;;;;;15.00;97.70;;;;;;5042921;28;19928;-76
2022/10/24 04:17:30;;;;;;;;;;;15.00;97.70;;;;;;5043779;28;19933;-77
2022/10/24 04:19:58;;;;;;;;;;;15.00;97.70;;;;;;5038897;28;20443;-76
2022/10/24 04:22:25;;;;;;;;;;;14.90;97.70;;;;;;5037902;28;19936;-77
2022/10/24 04:24:51;;;;;;;;;;;14.90;97.70;;;;;;5040051;28;19936;-76
2022/10/24 04:27:18;;;;;;;;;;;14.90;97.70;;;;;;5042073;28;19928;-76
2022/10/24 04:29:45;;;;;;;;;;;14.90;97.70;;;;;;5043908;28;19933;-76
2022/10/24 04:32:11;;;;;;;;;;;14.90;97.70;;;;;;5042551;28;19940;-76
2022/10/24 04:34:38;;;;;;;;;;;14.90;97.70;;;;;;5045936;28;19928;-76
2022/10/24 04:37:06;;;;;;;;;;;14.90;97.70;;;;;;5044402;28;19964;-77
2022/10/24 04:39:32;;;;;;;;;;;14.90;97.70;;;;;;5042103;28;19944;-76
2022/10/24 04:41:59;;;;;;;;;;;14.90;97.80;;;;;;5045781;28;19932;-76
2022/10/24 04:44:25;;;;;;;;;;;14.90;97.70;;;;;;5043904;28;19929;-76
2022/10/24 04:46:52;;;;;;;;;;;14.90;97.70;;;;;;5045574;28;19935;-76
2022/10/24 04:49:19;;;;;;;;;;;14.90;97.80;;;;;;5043807;28;19929;-75
2022/10/24 04:51:45;;;;;;;;;;;14.90;97.80;;;;;;5044661;28;19952;-76
2022/10/24 04:54:13;;;;;;;;;;;14.90;97.80;;;;;;5043232;28;19932;-78
2022/10/24 04:56:40;;;;;;;;;;;14.90;97.80;;;;;;5039405;28;19936;-79
2022/10/24 04:59:06;;;;;;;;;;;14.90;97.80;;;;;;5043169;28;20019;-79
2022/10/24 05:01:33;;;;;;;;;;;14.90;98.80;;;;;;5042869;28;19924;-79
2022/10/24 05:03:59;;;;;;;;;;;14.70;99.20;;;;;;5049767;28;19930;-80
2022/10/24 05:06:26;;;;;;;;;;;14.70;99.30;;;;;;5052054;28;19929;-80
2022/10/24 05:08:53;;;;;;;;;;;14.70;99.20;;;;;;5048686;28;20408;-79
2022/10/24 05:11:20;;;;;;;;;;;14.70;99.10;;;;;;5046600;28;20393;-78
2022/10/24 05:13:47;;;;;;;;;;;14.70;99.00;;;;;;5046093;28;19935;-79
2022/10/24 05:16:14;;;;;;;;;;;14.70;98.90;;;;;;5046178;28;19928;-79
2022/10/24 05:18:40;;;;;;;;;;;14.70;98.80;;;;;;5045866;28;19943;-78
2022/10/24 05:21:07;;;;;;;;;;;14.80;98.80;;;;;;5049490;28;19933;-80
2022/10/24 05:23:33;;;;;;;;;;;14.80;98.80;;;;;;5047139;28;19928;-80
2022/10/24 05:26:00;;;;;;;;;;;14.80;98.70;;;;;;5047909;28;19933;-80
2022/10/24 05:28:28;;;;;;;;;;;14.80;98.70;;;;;;5048550;28;19929;-79
2022/10/24 05:30:55;;;;;;;;;;;14.80;98.60;;;;;;5049270;28;19932;-79
2022/10/24 05:33:22;;;;;;;;;;;14.80;98.60;;;;;;5047880;28;20296;-79
2022/10/24 05:35:49;;;;;;;;;;;14.80;98.60;;;;;;5049032;28;20308;-79
2022/10/24 05:38:15;;;;;;;;;;;14.80;98.50;;;;;;5044986;28;20481;-79
2022/10/24 05:40:42;;;;;;;;;;;14.80;98.50;;;;;;5041506;28;19929;-80
2022/10/24 05:43:09;;;;;;;;;;;14.80;98.50;;;;;;5043454;28;19929;-79
2022/10/24 05:45:37;;;;;;;;;;;14.80;98.50;;;;;;5046956;28;19948;-79
2022/10/24 05:48:03;;;;;;;;;;;14.80;98.50;;;;;;5040409;28;19924;-80
2022/10/24 05:50:30;;;;;;;;;;;14.80;98.40;;;;;;5046269;28;20652;-80
2022/10/24 05:52:57;;;;;;;;;;;14.80;98.40;;;;;;5046804;28;19929;-80
2022/10/24 05:55:23;;;;;;;;;;;14.80;98.40;;;;;;5034995;28;19940;-81
2022/10/24 05:57:50;;;;;;;;;;;14.80;98.40;;;;;;5038475;28;20429;-79
2022/10/24 06:00:16;;;;;;;;;;;14.80;98.40;;;;;;5035841;28;20411;-78
2022/10/24 06:02:45;;;;;;;;;;;14.80;98.40;;;;;;5036062;28;19940;-79
2022/10/24 06:05:12;;;;;;;;;;;14.80;98.40;;;;;;5037746;28;19933;-78
2022/10/24 06:07:40;;;;;;;;;;;14.80;98.30;;;;;;5038150;28;19935;-78
2022/10/24 06:10:07;;;;;;;;;;;14.80;98.30;;;;;;5036007;28;20328;-79
2022/10/24 06:12:35;;;;;;;;;;;14.80;98.40;;;;;;5037917;28;19932;-79
2022/10/24 06:15:02;;;;;;;;;;;14.80;98.40;;;;;;5033355;28;20019;-76
2022/10/24 06:17:28;;;;;;;;;;;14.80;98.40;;;;;;5037617;28;19928;-80
2022/10/24 06:19:57;;;;;;;;;;;14.80;98.40;;;;;;5037506;28;19987;-78
2022/10/24 06:22:28;;;;;;;;;;;14.80;98.40;;;;;;5038587;28;20564;-78
2022/10/24 06:24:55;;;;;;;;;;;14.70;98.40;;;;;;5046944;28;20443;-79
2022/10/24 06:27:22;;;;;;;;;;;14.80;98.40;;;;;;5043060;28;19929;-77
2022/10/24 06:29:49;;;;;;;;;;;14.80;98.40;;;;;;5040274;28;20447;-77
2022/10/24 06:32:15;;;;;;;;;;;14.70;98.30;;;;;;5040060;28;20339;-79
2022/10/24 06:34:42;;;;;;;;;;;14.80;98.40;;;;;;5039465;28;19933;-79
2022/10/24 06:37:10;;;;;;;;;;;14.70;98.40;;;;;;5039617;28;19935;-78
2022/10/24 06:39:36;;;;;;;;;;;14.70;98.40;;;;;;5033373;28;20439;-79
2022/10/24 06:42:03;;;;;;;;;;;14.80;98.40;;;;;;5034835;28;19929;-79
2022/10/24 06:44:30;;;;;;;;;;;14.70;98.40;;;;;;5039840;28;19941;-79
2022/10/24 06:46:57;;;;;;;;;;;14.70;98.40;;;;;;5043523;28;19933;-80
2022/10/24 06:49:23;;;;;;;;;;;14.70;98.40;;;;;;5036872;28;19933;-78
2022/10/24 06:51:51;;;;;;;;;;;14.70;98.40;;;;;;5036045;28;19936;-78
2022/10/24 06:54:19;;;;;;;;;;;14.70;98.40;;;;;;5038087;28;19936;-79
2022/10/24 06:56:46;;;;;;;;;;;14.70;98.40;;;;;;5044001;28;20026;-78
2022/10/24 06:59:15;;;;;;;;;;;14.70;98.50;;;;;;5044729;28;20428;-70
2022/10/24 07:01:41;;;;;;;;;;;14.70;98.50;;;;;;5035424;28;19929;-69
2022/10/24 07:04:08;;;;;;;;;;;14.70;98.50;;;;;;5035436;28;19936;-68
2022/10/24 07:06:35;;;;;;;;;;;14.80;98.50;;;;;;5044980;28;20390;-70
2022/10/24 07:09:02;;;;;;;;;;;14.70;98.50;;;;;;5039967;28;19929;-70
2022/10/24 07:11:30;;;;;;;;;;;14.70;98.50;;;;;;5038280;28;19929;-69
2022/10/24 07:13:56;;;;;;;;;;;14.70;98.50;;;;;;5041355;28;20891;-68
2022/10/24 07:16:23;;;;;;;;;;;14.70;98.50;;;;;;5034826;28;19929;-70
2022/10/24 07:18:50;;;;;;;;;;;14.70;98.50;;;;;;5040316;28;19944;-69
2022/10/24 07:21:18;;;;;;;;;;;14.70;98.50;;;;;;5040316;28;19929;-69
2022/10/24 07:23:44;;;;;;;;;;;14.70;98.80;;;;;;5042655;28;19936;-69
2022/10/24 07:26:12;;;;;;;;;;;14.70;98.50;;;;;;5042256;28;19929;-69
2022/10/24 07:28:40;;;;;;;;;;;14.80;98.50;;;;;;5043473;28;19929;-69
2022/10/24 07:31:07;;;;;;;;;;;14.80;98.50;;;;;;5033247;28;19964;-69
2022/10/24 07:33:34;;;;;;;;;;;14.70;98.50;;;;;;5040448;28;19935;-69
2022/10/24 07:36:00;;;;;;;;;;;14.70;98.80;;;;;;5037478;28;19971;-70
2022/10/24 07:38:27;;;;;;;;;;;14.70;98.50;;;;;;5037324;28;19929;-69
2022/10/24 07:40:53;;;;;;;;;;;14.70;98.50;;;;;;5043792;28;19932;-69
2022/10/24 07:43:20;;;;;;;;;;;14.80;98.50;;;;;;5039424;28;19936;-69
2022/10/24 07:45:48;;;;;;;;;;;14.70;98.50;;;;;;5033741;28;19934;-70
2022/10/24 07:48:15;;;;;;;;;;;14.70;98.50;;;;;;5042628;28;19929;-70
2022/10/24 07:50:42;;;;;;;;;;;14.70;98.50;;;;;;5043792;28;20419;-69
2022/10/24 07:53:09;;;;;;;;;;;14.80;98.50;;;;;;5039055;28;19933;-69
2022/10/24 07:55:37;;;;;;;;;;;14.80;98.50;;;;;;5035736;28;19936;-70
2022/10/24 07:58:04;;;;;;;;;;;14.80;98.50;;;;;;5038940;28;20399;-69
2022/10/24 08:00:30;;;;;;;;;;;14.80;98.50;;;;;;5043057;28;19935;-70
2022/10/24 08:02:58;;;;;;;;;;;14.70;98.50;;;;;;5039910;28;19939;-69
2022/10/24 08:05:25;;;;;;;;;;;14.80;98.50;;;;;;5041201;28;19928;-69
2022/10/24 08:07:51;;;;;;;;;;;14.80;98.50;;;;;;5044603;28;19935;-69
2022/10/24 08:10:18;;;;;;;;;;;14.80;98.50;;;;;;5043586;28;19929;-69
2022/10/24 08:12:44;;;;;;;;;;;14.80;98.50;;;;;;5047412;28;19935;-69
2022/10/24 08:15:11;;;;;;;;;;;14.80;98.50;;;;;;5043846;28;19933;-69
2022/10/24 08:17:38;;;;;;;;;;;14.80;98.60;;;;;;5044498;28;19929;-68
2022/10/24 08:20:07;;;;;;;;;;;14.80;98.60;;;;;;5045413;28;19932;-69
2022/10/24 08:22:34;;;;;;;;;;;14.80;98.60;;;;;;5043291;28;19951;-69
2022/10/24 08:25:00;;;;;;;;;;;14.80;98.70;;;;;;5038716;28;19962;-68
2022/10/24 08:27:27;;;;;;;;;;;14.80;98.60;;;;;;5044945;28;19940;-69
2022/10/24 08:29:53;;;;;;;;;;;14.80;98.70;;;;;;5047013;28;19929;-68
2022/10/24 08:32:20;;;;;;;;;;;14.80;98.70;;;;;;5043527;28;19935;-68
2022/10/24 08:34:47;;;;;;;;;;;14.90;98.80;;;;;;5045838;28;20012;-69
2022/10/24 08:37:14;;;;;;;;;;;14.80;98.80;;;;;;5044521;28;19936;-68
2022/10/24 08:39:41;;;;;;;;;;;14.90;98.80;;;;;;5041699;28;20767;-68
2022/10/24 08:42:11;;;;;;;;;;;14.90;98.80;;;;;;5046969;28;19929;-68
2022/10/24 08:44:38;;;;;;;;;;;14.90;98.80;;;;;;5046930;28;19936;-67
2022/10/24 08:47:10;;;;;;;;;;;14.90;98.80;;;;;;5040950;28;19929;-69
2022/10/24 08:49:39;;;;;;;;;;;14.90;98.80;;;;;;5039414;28;20572;-69
2022/10/24 08:52:12;;;;;;;;;;;14.90;98.80;;;;;;5046375;28;19932;-69
2022/10/24 08:54:40;;;;;;;;;;;14.90;98.90;;;;;;5039624;28;19929;-69
2022/10/24 08:57:14;;;;;;;;;;;15.00;98.80;;;;;;5035687;28;19966;-69
2022/10/24 08:59:40;;;;;;;;;;;15.00;98.80;;;;;;5043926;28;19929;-68
2022/10/24 09:02:15;;;;;;;;;;;15.00;98.80;;;;;;5039007;28;19933;-68
2022/10/24 09:04:45;;;;;;;;;;;14.90;98.80;;;;;;5044246;28;19929;-68
2022/10/24 09:07:15;;;;;;;;;;;15.00;98.80;;;;;;5043935;28;20423;-69
2022/10/24 09:09:45;;;;;;;;;;;15.00;98.80;;;;;;5042379;28;20294;-69
2022/10/24 09:12:13;;;;;;;;;;;15.00;98.90;;;;;;5043295;28;19975;-68
2022/10/24 09:14:41;;;;;;;;;;;15.00;98.80;;;;;;5045198;28;20026;-69
2022/10/24 09:17:11;;;;;;;;;;;15.00;98.80;;;;;;5042604;28;19932;-68
2022/10/24 09:19:38;;;;;;;;;;;15.00;98.80;;;;;;5044724;28;19928;-67
2022/10/24 09:22:06;;;;;;;;;;;15.00;98.80;;;;;;5041932;28;19933;-68
2022/10/24 09:24:37;;;;;;;;;;;15.00;98.70;;;;;;5042552;28;20372;-68
2022/10/24 09:27:07;;;;;;;;;;;15.00;98.60;;;;;;5045610;28;19936;-68
2022/10/24 09:29:33;;;;;;;;;;;15.00;98.60;;;;;;5045864;28;19928;-68
2022/10/24 09:32:01;;;;;;;;;;;15.00;98.60;;;;;;5033074;28;19936;-68
2022/10/24 09:34:27;;;;;;;;;;;15.10;98.60;;;;;;5041834;28;19929;-68
2022/10/24 09:36:54;;;;;;;;;;;15.10;98.60;;;;;;5034781;28;19929;-69
2022/10/24 09:39:28;;;;;;;;;;;15.10;98.60;;;;;;5036166;28;19936;-69
2022/10/24 09:41:55;;;;;;;;;;;15.10;98.60;;;;;;5042864;28;19928;-69
2022/10/24 09:44:31;;;;;;;;;;;15.10;98.50;;;;;;5036069;28;19952;-68
2022/10/24 09:46:58;;;;;;;;;;;15.10;98.50;;;;;;5036985;28;20515;-68
2022/10/24 09:49:31;;;;;;;;;;;15.10;98.50;;;;;;5040777;28;19932;-68
2022/10/24 09:52:00;;;;;;;;;;;15.10;98.50;;;;;;5042923;28;20000;-68
2022/10/24 09:54:28;;;;;;;;;;;15.10;98.50;;;;;;5046333;28;19936;-67
2022/10/24 09:56:57;;;;;;;;;;;15.10;98.50;;;;;;5046077;28;19928;-68
2022/10/24 09:59:36;;;;;;;;;;;15.10;98.50;;;;;;5045260;28;19929;-67
2022/10/24 10:02:12;;;;;;;;;;;15.20;98.50;;;;;;5041192;28;19940;-68
2022/10/24 10:04:40;;;;;;;;;;;15.20;98.50;;;;;;5040579;28;19964;-68
2022/10/24 10:07:09;;;;;;;;;;;15.20;98.50;;;;;;5045537;28;19933;-69
2022/10/24 10:09:40;;;;;;;;;;;15.20;98.50;;;;;;5043742;28;19964;-68
2022/10/24 10:12:24;;;;;;;;;;;15.20;98.50;;;;;;5033071;28;20030;-68
2022/10/24 10:14:52;;;;;;;;;;;15.20;98.40;;;;;;5041854;28;19932;-68
2022/10/24 10:17:21;;;;;;;;;;;15.30;98.50;;;;;;5042168;28;19928;-68
2022/10/24 10:19:48;;;;;;;;;;;15.30;98.50;;;;;;5041583;28;19968;-68
2022/10/24 10:22:21;;;;;;;;;;;15.30;98.50;;;;;;5041452;28;19936;-68
2022/10/24 10:24:48;;;;;;;;;;;15.30;98.40;;;;;;5039256;28;20492;-68
2022/10/24 10:27:24;;;;;;;;;;;15.30;98.40;;;;;;5037208;28;20016;-68
2022/10/24 10:30:07;;;;;;;;;;;15.30;98.40;;;;;;5044437;28;19929;-68
2022/10/24 10:32:37;;;;;;;;;;;15.40;98.50;;;;;;5039114;28;19936;-68
2022/10/24 10:35:10;;;;;;;;;;;15.40;98.50;;;;;;5037803;28;19929;-68
2022/10/24 10:37:39;;;;;;;;;;;15.40;98.50;;;;;;5037371;28;20403;-67
2022/10/24 10:40:24;;;;;;;;;;;15.40;98.50;;;;;;5038199;28;20514;-67
2022/10/24 10:42:56;;;;;;;;;;;15.40;98.50;;;;;;5033639;28;19983;-68
2022/10/24 10:45:30;;;;;;;;;;;15.40;98.50;;;;;;5034761;28;19964;-68
2022/10/24 10:48:00;;;;;;;;;;;15.50;98.50;;;;;;5035239;28;19932;-69
2022/10/24 10:50:28;;;;;;;;;;;15.50;98.60;;;;;;5044797;28;20420;-68
2022/10/24 10:52:59;;;;;;;;;;;15.50;98.60;;;;;;5040381;28;19935;-69
2022/10/24 10:55:31;;;;;;;;;;;15.50;98.70;;;;;;5043594;28;19929;-68
2022/10/24 10:58:03;;;;;;;;;;;15.50;98.70;;;;;;5040969;28;20573;-69
2022/10/24 11:00:35;;;;;;;;;;;15.50;98.70;;;;;;5041584;28;19935;-68
2022/10/24 11:03:08;;;;;;;;;;;15.50;98.80;;;;;;5041103;28;19971;-67
2022/10/24 11:05:50;;;;;;;;;;;15.50;98.80;;;;;;5040040;28;19933;-68
2022/10/24 11:08:22;;;;;;;;;;;15.60;98.90;;;;;;5043414;28;19929;-68
2022/10/24 11:10:51;;;;;;;;;;;15.60;99.00;;;;;;5042950;28;19936;-68
2022/10/24 11:13:19;;;;;;;;;;;15.60;99.20;;;;;;5044651;28;19936;-69
2022/10/24 11:15:48;;;;;;;;;;;15.60;99.50;;;;;;5040814;28;19928;-68
2022/10/24 11:18:17;;;;;;;;;;;15.60;99.20;;;;;;5035943;28;19929;-68
2022/10/24 11:20:47;;;;;;;;;;;15.60;99.10;;;;;;5042091;28;19929;-68
2022/10/24 11:23:16;;;;;;;;;;;15.60;99.10;;;;;;5040421;28;20503;-69
2022/10/24 11:25:45;;;;;;;;;;;15.60;99.00;;;;;;5039956;28;19929;-68
2022/10/24 11:28:14;;;;;;;;;;;15.70;99.00;;;;;;5040391;28;20427;-68
2022/10/24 11:30:44;;;;;;;;;;;15.60;99.00;;;;;;5039007;28;19935;-68
2022/10/24 11:33:15;;;;;;;;;;;15.70;99.00;;;;;;5043159;28;19929;-69
2022/10/24 11:35:53;;;;;;;;;;;15.70;98.90;;;;;;5044079;28;19936;-69
2022/10/24 11:38:21;;;;;;;;;;;15.70;98.90;;;;;;5035423;28;20317;-68
2022/10/24 11:40:50;;;;;;;;;;;15.70;98.80;;;;;;5036924;28;19933;-69
2022/10/24 11:43:19;;;;;;;;;;;15.70;98.80;;;;;;5043330;28;19929;-69
2022/10/24 11:45:48;;;;;;;;;;;15.80;98.80;;;;;;5037185;28;19933;-69
2022/10/24 11:48:19;;;;;;;;;;;15.80;99.00;;;;;;5036008;28;19929;-69
2022/10/24 11:50:49;;;;;;;;;;;15.90;99.00;;;;;;5043892;28;19936;-70
2022/10/24 11:53:30;;;;;;;;;;;15.90;99.00;;;;;;5039289;28;19935;-69
2022/10/24 11:55:59;;;;;;;;;;;16.00;99.00;;;;;;5035361;28;19972;-69
2022/10/24 11:58:27;;;;;;;;;;;16.00;98.90;;;;;;5036770;28;19929;-69
2022/10/24 12:01:09;;;;;;;;;;;16.10;98.90;;;;;;5039734;28;19936;-70
2022/10/24 12:03:56;;;;;;;;;;;16.20;98.80;;;;;;5037693;28;19933;-69
2022/10/24 12:06:37;;;;;;;;;;;16.10;98.70;;;;;;5038906;28;19929;-69
2022/10/24 12:09:14;;;;;;;;;;;16.20;98.50;;;;;;5042631;28;19961;-70
2022/10/24 12:11:48;;;;;;;;;;;16.30;98.40;;;;;;5034689;28;19936;-70
2022/10/24 12:14:22;;;;;;;;;;;16.20;98.80;;;;;;5043422;28;20385;-69
2022/10/24 12:16:56;;;;;;;;;;;16.30;98.70;;;;;;5036482;28;19955;-69
2022/10/24 12:19:25;;;;;;;;;;;16.30;98.70;;;;;;5041644;28;19929;-69
2022/10/24 12:21:52;;;;;;;;;;;16.30;98.60;;;;;;5040322;28;19951;-69
2022/10/24 12:24:20;;;;;;;;;;;16.30;98.60;;;;;;5036314;28;19936;-69
2022/10/24 12:26:53;;;;;;;;;;;16.40;98.60;;;;;;5040730;28;19929;-70
2022/10/24 12:29:22;;;;;;;;;;;16.40;98.70;;;;;;5039682;28;19943;-70
2022/10/24 12:31:48;;;;;;;;;;;16.40;98.60;;;;;;5039157;28;19932;-69
2022/10/24 12:34:36;;;;;;;;;;;16.50;98.70;;;;;;5033031;28;19933;-69
2022/10/24 12:37:10;;;;;;;;;;;16.60;98.60;;;;;;5012643;28;19936;-69
2022/10/24 12:39:38;;;;;;;;;;;16.60;98.50;;;;;;5031963;28;19935;-68
2022/10/24 12:42:05;;;;;;;;;;;16.60;98.50;;;;;;5043659;28;19929;-68
2022/10/24 12:44:39;;;;;;;;;;;16.70;98.30;;;;;;5043262;28;19940;-70
2022/10/24 12:47:24;;;;;;;;;;;16.80;98.20;;;;;;5034595;28;19969;-69
2022/10/24 12:49:51;;;;;;;;;;;16.80;98.00;;;;;;5035283;28;20545;-69
2022/10/24 12:52:32;;;;;;;;;;;16.90;97.80;;;;;;5040624;28;19929;-68
2022/10/24 12:55:01;;;;;;;;;;;17.00;97.60;;;;;;5042828;28;20567;-69
2022/10/24 12:57:29;;;;;;;;;;;17.00;97.50;;;;;;5040685;28;19925;-70
2022/10/24 12:59:56;;;;;;;;;;;17.00;97.40;;;;;;5036639;28;19932;-69
2022/10/24 13:02:33;;;;;;;;;;;17.10;97.30;;;;;;5044836;28;19932;-69
2022/10/24 13:05:05;;;;;;;;;;;17.10;97.20;;;;;;5039804;28;19924;-69
2022/10/24 13:07:52;;;;;;;;;;;17.10;97.20;;;;;;5047132;28;19924;-69
2022/10/24 13:10:25;;;;;;;;;;;17.20;97.20;;;;;;5039681;28;19939;-69
2022/10/24 13:13:05;;;;;;;;;;;17.20;97.00;;;;;;5042580;28;19925;-68
2022/10/24 13:15:36;;;;;;;;;;;17.20;96.80;;;;;;5045141;28;20396;-68
2022/10/24 13:18:13;;;;;;;;;;;17.30;96.80;;;;;;5039505;28;20456;-69
2022/10/24 13:20:40;;;;;;;;;;;17.40;96.70;;;;;;5042997;28;19948;-69
2022/10/24 13:23:13;;;;;;;;;;;17.40;96.60;;;;;;5038052;28;20446;-68
2022/10/24 13:25:41;;;;;;;;;;;17.50;96.50;;;;;;5040312;28;19925;-67
2022/10/24 13:28:29;;;;;;;;;;;17.50;96.20;;;;;;5044647;28;19931;-68
2022/10/24 13:31:10;;;;;;;;;;;17.60;96.10;;;;;;5044353;28;20015;-67
2022/10/24 13:33:41;;;;;;;;;;;17.70;96.00;;;;;;5038484;28;19925;-68
2022/10/24 13:36:13;;;;;;;;;;;17.80;95.80;;;;;;5035605;28;19936;-68
2022/10/24 13:38:41;;;;;;;;;;;17.80;95.60;;;;;;5037507;28;19936;-68
2022/10/24 13:41:10;;;;;;;;;;;17.90;95.30;;;;;;5045715;28;19936;-67
2022/10/24 13:43:38;;;;;;;;;;;17.90;95.30;;;;;;5038607;28;19939;-68
2022/10/24 13:46:08;;;;;;;;;;;18.00;95.00;;;;;;5036007;28;20926;-68
2022/10/24 13:48:37;;;;;;;;;;;18.00;95.10;;;;;;5044129;28;20353;-68
2022/10/24 13:51:06;;;;;;;;;;;18.00;95.00;;;;;;5043375;28;19928;-68
2022/10/24 13:53:35;;;;;;;;;;;18.00;95.00;;;;;;5045235;28;19932;-68
2022/10/24 13:56:03;;;;;;;;;;;18.10;95.10;;;;;;5042580;28;19952;-68
2022/10/24 13:58:37;;;;;;;;;;;18.10;95.00;;;;;;5037420;28;19936;-68
2022/10/24 14:01:05;;;;;;;;;;;18.10;95.00;;;;;;5041928;28;19928;-67
2022/10/24 14:03:33;;;;;;;;;;;18.10;95.00;;;;;;5040741;28;19963;-68
2022/10/24 14:06:00;;;;;;;;;;;18.00;95.00;;;;;;5040740;28;19936;-67
2022/10/24 14:08:29;;;;;;;;;;;18.00;95.10;;;;;;5040834;28;19936;-68
2022/10/24 14:10:57;;;;;;;;;;;18.00;95.00;;;;;;5040043;28;19967;-68
2022/10/24 14:13:24;;;;;;;;;;;18.00;95.00;;;;;;5040877;28;19929;-67
2022/10/24 14:15:53;;;;;;;;;;;17.90;95.10;;;;;;5040482;28;20763;-68
2022/10/24 14:18:21;;;;;;;;;;;17.90;95.10;;;;;;5036354;28;20631;-68
2022/10/24 14:20:51;;;;;;;;;;;17.90;95.20;;;;;;5042353;28;19928;-68
2022/10/24 14:23:24;;;;;;;;;;;17.90;95.10;;;;;;5038649;28;19929;-70
2022/10/24 14:25:53;;;;;;;;;;;17.90;94.80;;;;;;5033511;28;20151;-68